Time;durP1;ratioP1;P1;durP2;ratioP2;P2;SDS_P1;SDS_P2;PMS_P1;PMS_P2;Temp;Humidity;BMP_temperature;BMP_pressure;BME280_temperature;BME280_humidity;BME280_pressure;Samples;Min_cycle;Max_cycle;Signal;HPM_P1;HPM_P2
2023/05/26 00:00:12;;;;;;;29.10;6.82;;;;;;;11.57;66.84;102631.09;3614051;39;20058;-66
2023/05/26 00:02:39;;;;;;;21.13;5.75;;;;;;;11.52;67.80;102629.53;3614663;39;20043;-66
2023/05/26 00:05:09;;;;;;;23.92;6.28;;;;;;;11.51;67.56;102627.75;3616198;39;21306;-66
2023/05/26 00:07:40;;;;;;;21.77;5.70;;;;;;;11.46;67.47;102625.25;3618840;39;20085;-65
2023/05/26 00:10:10;;;;;;;22.33;5.97;;;;;;;11.43;68.10;102625.34;3614782;39;20109;-67
2023/05/26 00:12:37;;;;;;;22.58;5.85;;;;;;;11.38;68.15;102628.22;3615274;39;20054;-66
2023/05/26 00:15:04;;;;;;;22.67;5.78;;;;;;;11.24;67.50;102603.59;3616779;39;20058;-66
2023/05/26 00:17:29;;;;;;;16.42;4.90;;;;;;;11.29;68.54;102628.56;3614122;39;20051;-66
2023/05/26 00:19:59;;;;;;;21.10;5.68;;;;;;;11.26;68.81;102639.44;3613391;39;20062;-66
2023/05/26 00:22:28;;;;;;;18.80;5.85;;;;;;;11.24;68.55;102626.97;3616862;39;20138;-66
2023/05/26 00:24:53;;;;;;;21.73;5.80;;;;;;;11.22;68.16;102645.84;3615403;39;20066;-65
2023/05/26 00:27:19;;;;;;;22.13;5.20;;;;;;;11.18;68.62;102641.50;3615327;39;20051;-67
2023/05/26 00:29:45;;;;;;;22.38;5.25;;;;;;;11.15;69.19;102645.19;3613530;39;20078;-67
2023/05/26 00:32:11;;;;;;;22.88;5.47;;;;;;;11.11;69.23;102639.97;3615769;39;20058;-68
2023/05/26 00:34:37;;;;;;;24.67;5.85;;;;;;;11.05;69.07;102645.56;3614659;39;20107;-68
2023/05/26 00:37:02;;;;;;;25.70;5.97;;;;;;;11.03;69.22;102647.41;3615406;39;20070;-67
2023/05/26 00:39:30;;;;;;;22.02;6.43;;;;;;;11.00;70.15;102653.78;3616585;39;20357;-67
2023/05/26 00:41:56;;;;;;;20.48;5.65;;;;;;;10.98;69.91;102652.09;3613703;39;20382;-67
2023/05/26 00:44:22;;;;;;;21.73;6.82;;;;;;;10.75;70.08;102610.72;3616910;39;20389;-67
2023/05/26 00:46:48;;;;;;;23.83;5.68;;;;;;;10.93;69.57;102644.16;3615599;39;20058;-68
2023/05/26 00:49:14;;;;;;;18.42;5.10;;;;;;;10.86;70.43;102640.81;3615747;39;20123;-68
2023/05/26 00:51:44;;;;;;;24.38;6.97;;;;;;;10.88;70.74;102644.34;3615423;39;20127;-68
2023/05/26 00:54:10;;;;;;;27.92;6.75;;;;;;;10.86;69.92;102643.50;3615979;39;20051;-69
2023/05/26 00:56:36;;;;;;;22.42;5.75;;;;;;;10.87;70.64;102647.94;3614621;39;20081;-67
2023/05/26 00:59:05;;;;;;;22.70;6.00;;;;;;;10.82;70.20;102644.53;3607242;39;20066;-68
2023/05/26 01:01:32;;;;;;;20.27;5.28;;;;;;;10.75;70.24;102637.63;3613969;39;20314;-67
2023/05/26 01:03:59;;;;;;;20.65;5.65;;;;;;;10.75;70.96;102647.47;3615629;39;20419;-67
2023/05/26 01:06:25;;;;;;;20.95;6.10;;;;;;;10.28;70.89;102580.91;3604088;39;20046;-67
2023/05/26 01:08:51;;;;;;;23.58;6.43;;;;;;;10.68;70.57;102646.81;3613183;39;20278;-68
2023/05/26 01:12:07;;;;;;;25.15;5.78;;;;;;;10.65;70.60;102655.84;3613917;39;20405;-68
2023/05/26 01:14:49;;;;;;;24.15;6.45;;;;;;;10.63;70.39;102654.16;3610071;39;20051;-68
2023/05/26 01:17:28;;;;;;;25.17;5.38;;;;;;;10.62;71.29;102658.63;3617979;39;20100;-67
2023/05/26 01:20:25;;;;;;;29.60;6.43;;;;;;;10.39;70.75;102623.56;3616051;39;20085;-68
2023/05/26 01:23:29;;;;;;;22.63;5.20;;;;;;;10.60;71.08;102659.63;3614416;39;20091;-68
2023/05/26 01:26:21;;;;;;;;;;;;;;;10.15;70.41;102595.63;3611130;39;20035;-68
2023/05/26 01:28:53;;;;;;;23.15;5.60;;;;;;;10.61;71.30;102661.38;3613937;39;19930;-67
2023/05/26 01:31:19;;;;;;;23.10;5.55;;;;;;;10.54;71.09;102660.72;3615239;39;20050;-67
2023/05/26 01:33:44;;;;;;;26.50;6.30;;;;;;;10.51;70.71;102658.13;3615070;39;20086;-67
2023/05/26 01:36:10;;;;;;;23.73;5.68;;;;;;;10.55;71.37;102661.59;3616755;39;20051;-67
2023/05/26 01:38:36;;;;;;;23.77;6.15;;;;;;;10.54;71.23;102662.53;3615309;39;20328;-67
2023/05/26 01:41:37;;;;;;;27.52;5.80;;;;;;;10.51;71.26;102662.63;3614853;39;20332;-67
2023/05/26 01:44:23;;;;;;;25.63;5.28;;;;;;;10.44;70.95;102660.13;3613094;39;20050;-68
2023/05/26 01:46:51;;;;;;;23.38;5.07;;;;;;;10.43;71.50;102662.84;3614733;39;20057;-68
2023/05/26 01:49:22;;;;;;;25.88;5.60;;;;;;;10.40;71.75;102663.84;3615151;39;20466;-68
2023/05/26 01:51:56;;;;;;;21.52;5.25;;;;;;;10.37;71.51;102658.56;3615176;39;20107;-68
2023/05/26 01:54:26;;;;;;;27.08;5.32;;;;;;;10.34;71.82;102664.03;3612947;39;20437;-68
2023/05/26 01:56:54;;;;;;;23.88;5.32;;;;;;;10.32;71.63;102660.50;3615633;39;20062;-68
2023/05/26 01:59:22;;;;;;;21.77;4.93;;;;;;;10.30;71.79;102665.03;3613138;39;20055;-68
2023/05/26 02:01:48;;;;;;;24.40;6.20;;;;;;;10.00;71.82;102621.16;3613324;39;20046;-67
2023/05/26 02:04:13;;;;;;;22.42;5.53;;;;;;;10.26;71.68;102670.53;3615482;39;20065;-68
2023/05/26 02:06:39;;;;;;;24.63;5.68;;;;;;;10.23;72.26;102661.63;3614307;39;20072;-67
2023/05/26 02:09:06;;;;;;;25.98;5.63;;;;;;;10.21;71.52;102662.59;3614312;39;20069;-67
2023/05/26 02:11:32;;;;;;;26.00;5.90;;;;;;;10.16;72.09;102664.56;3613214;39;20409;-67
2023/05/26 02:13:58;;;;;;;25.10;5.47;;;;;;;10.17;71.99;102661.81;3614169;39;20054;-68
2023/05/26 02:16:26;;;;;;;26.30;5.68;;;;;;;10.11;72.21;102656.63;3615062;39;20046;-68
2023/05/26 02:18:52;;;;;;;22.13;5.25;;;;;;;9.87;72.34;102626.03;3613104;39;20055;-67
2023/05/26 02:21:18;;;;;;;26.50;5.22;;;;;;;10.12;72.05;102668.28;3613608;39;20043;-68
2023/05/26 02:23:45;;;;;;;20.75;5.10;;;;;;;10.07;72.22;102670.22;3616984;39;20051;-67
2023/05/26 02:26:11;;;;;;;22.15;5.88;;;;;;;10.02;72.42;102672.16;3615580;39;20046;-68
2023/05/26 02:28:41;;;;;;;25.75;6.85;;;;;;;9.76;72.72;102633.50;3613781;39;20366;-68
2023/05/26 02:31:06;;;;;;;18.42;4.45;;;;;;;9.99;73.07;102679.41;3614717;39;20087;-68
2023/05/26 02:33:32;;;;;;;24.95;5.43;;;;;;;9.92;72.45;102676.91;3614852;39;20054;-68
2023/05/26 02:35:58;;;;;;;22.17;5.55;;;;;;;9.90;73.13;102684.16;3615103;39;20337;-68
2023/05/26 02:38:23;;;;;;;30.02;6.10;;;;;;;9.87;73.33;102677.06;3614801;39;20055;-69
2023/05/26 02:40:50;;;;;;;29.77;5.32;;;;;;;9.85;73.16;102681.59;3617607;39;20051;-68
2023/05/26 02:43:16;;;;;;;22.45;5.50;;;;;;;9.82;73.35;102681.69;3618392;39;20386;-68
2023/05/26 02:45:43;;;;;;;24.73;5.30;;;;;;;9.79;73.76;102673.72;3616505;39;20096;-68
2023/05/26 02:48:08;;;;;;;22.15;5.88;;;;;;;9.78;73.04;102674.66;3618123;39;20051;-68
2023/05/26 02:50:34;;;;;;;29.42;5.45;;;;;;;9.74;73.00;102667.63;3614786;39;20069;-68
2023/05/26 02:52:59;;;;;;;24.27;5.97;;;;;;;9.74;73.28;102668.50;3616201;39;20071;-68
2023/05/26 02:55:25;;;;;;;27.77;5.53;;;;;;;9.70;74.06;102663.22;3614477;39;20058;-69
2023/05/26 02:57:52;;;;;;;25.05;6.00;;;;;;;9.69;73.28;102673.09;3615461;39;20059;-68
2023/05/26 03:00:18;;;;;;;28.58;6.43;;;;;;;9.58;73.29;102656.44;3616881;39;20270;-69
2023/05/26 03:02:44;;;;;;;22.52;5.93;;;;;;;9.68;73.17;102676.72;3617062;39;20179;-69
2023/05/26 03:05:10;;;;;;;21.42;5.40;;;;;;;9.60;73.16;102667.97;3617324;39;20437;-68
2023/05/26 03:07:35;;;;;;;27.33;5.45;;;;;;;9.61;73.62;102675.13;3615265;39;20055;-68
2023/05/26 03:10:01;;;;;;;27.05;5.25;;;;;;;9.60;74.07;102676.03;3605981;39;20423;-68
2023/05/26 03:12:27;;;;;;;22.48;5.20;;;;;;;9.57;73.72;102676.13;3614610;39;20403;-68
2023/05/26 03:14:54;;;;;;;18.90;5.00;;;;;;;9.46;73.78;102662.13;3614196;39;20413;-68
2023/05/26 03:17:20;;;;;;;30.35;6.50;;;;;;;9.50;73.97;102674.53;3614240;39;20055;-68
2023/05/26 03:19:45;;;;;;;26.35;5.95;;;;;;;9.46;74.52;102672.88;3615011;39;20047;-67
2023/05/26 03:22:11;;;;;;;21.92;4.88;;;;;;;9.24;74.18;102635.88;3614193;39;20073;-67
2023/05/26 03:24:37;;;;;;;24.80;5.65;;;;;;;9.45;73.92;102685.41;3615126;39;20128;-68
2023/05/26 03:27:03;;;;;;;25.73;5.32;;;;;;;9.43;74.06;102689.94;3614796;39;20062;-68
2023/05/26 03:29:30;;;;;;;26.60;5.28;;;;;;;9.38;74.15;102691.84;3614567;39;20039;-68
2023/05/26 03:31:57;;;;;;;25.20;6.03;;;;;;;9.04;74.20;102636.44;3604723;39;20077;-67
2023/05/26 03:34:26;;;;;;;27.00;5.78;;;;;;;9.33;74.66;102695.59;3616887;39;20299;-67
2023/05/26 03:36:53;;;;;;;30.23;6.47;;;;;;;9.34;74.84;102700.91;3614036;39;20055;-67
2023/05/26 03:39:19;;;;;;;25.90;6.15;;;;;;;9.29;74.92;102694.78;3618794;39;20156;-68
2023/05/26 03:41:45;;;;;;;28.55;6.25;;;;;;;9.27;75.30;102693.97;3606735;39;20043;-67
2023/05/26 03:44:10;;;;;;;33.63;6.60;;;;;;;8.99;74.74;102657.13;3616119;39;20134;-67
2023/05/26 03:46:36;;;;;;;22.70;5.75;;;;;;;9.27;74.65;102702.88;3615308;39;20058;-67
2023/05/26 03:49:01;;;;;;;24.00;5.57;;;;;;;9.29;75.23;102708.19;3617180;39;20058;-67
2023/05/26 03:51:27;;;;;;;23.55;5.35;;;;;;;9.29;74.50;102705.50;3614192;39;20453;-67
2023/05/26 03:53:53;;;;;;;28.63;5.28;;;;;;;9.27;74.85;102705.56;3615948;39;20389;-67
2023/05/26 03:56:18;;;;;;;25.55;5.82;;;;;;;9.28;74.47;102710.00;3614571;39;20046;-67
2023/05/26 03:58:44;;;;;;;28.08;6.00;;;;;;;9.27;74.69;102707.38;3613679;39;20050;-67
2023/05/26 04:01:10;;;;;;;26.60;5.75;;;;;;;9.28;75.40;102707.31;3614420;39;20375;-67
2023/05/26 04:03:36;;;;;;;24.75;6.05;;;;;;;9.32;74.68;102705.44;3614738;39;21472;-68
2023/05/26 04:06:02;;;;;;;26.67;5.53;;;;;;;9.32;74.50;102694.69;3613814;39;20074;-66
2023/05/26 04:08:28;;;;;;;25.98;6.03;;;;;;;9.06;74.96;102653.34;3617434;39;20051;-66
2023/05/26 04:10:54;;;;;;;28.23;6.15;;;;;;;9.39;74.48;102704.38;3613159;39;20056;-66
2023/05/26 04:13:20;;;;;;;27.25;5.47;;;;;;;9.38;74.20;102699.03;3613017;39;20347;-68
2023/05/26 04:15:46;;;;;;;24.00;5.35;;;;;;;9.40;74.35;102706.13;3615817;39;20046;-67
2023/05/26 04:18:11;;;;;;;24.05;4.97;;;;;;;9.39;74.62;102701.69;3614459;39;20050;-67
2023/05/26 04:20:37;;;;;;;23.83;5.63;;;;;;;9.45;74.25;102708.69;3617443;39;20098;-66
2023/05/26 04:23:03;;;;;;;25.60;5.50;;;;;;;9.43;73.98;102708.72;3619211;39;20055;-67
2023/05/26 04:25:28;;;;;;;28.23;6.18;;;;;;;9.38;74.25;102699.91;3616266;39;20047;-66
2023/05/26 04:27:57;;;;;;;24.02;6.28;;;;;;;9.41;74.88;102710.56;3613405;39;20058;-67
2023/05/26 04:30:23;;;;;;;26.25;6.78;;;;;;;9.02;74.97;102650.78;3613755;39;20437;-67
2023/05/26 04:32:49;;;;;;;30.00;6.72;;;;;;;9.36;75.74;102714.31;3614112;39;20094;-67
2023/05/26 04:35:15;;;;;;;20.67;5.43;;;;;;;9.26;75.66;102703.81;3614986;39;20343;-67
2023/05/26 04:37:42;;;;;;;25.10;6.20;;;;;;;9.37;75.96;102716.94;3613673;39;20061;-67
2023/05/26 04:40:09;;;;;;;21.77;5.70;;;;;;;9.35;75.95;102716.09;3616797;39;20045;-67
2023/05/26 04:42:36;;;;;;;28.13;6.47;;;;;;;9.36;75.74;102723.25;3616090;39;20049;-67
2023/05/26 04:45:08;;;;;;;29.92;7.00;;;;;;;9.11;75.33;102672.00;3613747;39;20059;-67
2023/05/26 04:47:36;;;;;;;26.45;6.38;;;;;;;9.41;75.24;102721.31;3618318;39;20046;-67
2023/05/26 04:50:03;;;;;;;25.02;5.63;;;;;;;9.41;75.58;102729.34;3613824;39;20096;-67
2023/05/26 04:52:29;;;;;;;27.13;6.40;;;;;;;9.38;75.99;102721.38;3613709;39;20051;-68
2023/05/26 04:54:54;;;;;;;26.17;6.20;;;;;;;9.39;75.84;102736.59;3613024;39;20058;-67
2023/05/26 04:57:20;;;;;;;26.60;6.20;;;;;;;9.43;75.68;102737.38;3615489;39;20057;-68
2023/05/26 04:59:46;;;;;;;23.23;6.47;;;;;;;9.11;75.58;102676.50;3614081;39;20059;-68
2023/05/26 05:02:12;;;;;;;27.67;6.82;;;;;;;9.44;75.79;102729.28;3613263;39;20115;-68
2023/05/26 05:04:42;;;;;;;29.10;6.78;;;;;;;9.47;76.07;102733.69;3613279;39;20062;-68
2023/05/26 05:07:08;;;;;;;27.15;6.78;;;;;;;9.50;76.00;102739.84;3607405;39;20053;-68
2023/05/26 05:09:34;;;;;;;26.38;6.72;;;;;;;9.53;74.94;102738.88;3613489;39;20421;-68
2023/05/26 05:12:00;;;;;;;27.67;6.38;;;;;;;9.58;75.47;102742.34;3613970;39;20054;-68
2023/05/26 05:14:26;;;;;;;22.50;6.32;;;;;;;9.62;75.44;102735.09;3619323;39;20047;-69
2023/05/26 05:16:51;;;;;;;26.40;6.40;;;;;;;9.69;74.82;102739.34;3616902;39;20282;-68
2023/05/26 05:19:17;;;;;;;21.52;6.20;;;;;;;9.74;74.42;102738.31;3616310;39;20055;-68
2023/05/26 05:21:43;;;;;;;29.80;6.65;;;;;;;9.76;74.77;102736.44;3614538;39;20199;-67
2023/05/26 05:24:08;;;;;;;26.08;6.97;;;;;;;9.85;74.01;102740.69;3617235;39;20292;-68
2023/05/26 05:26:34;;;;;;;25.60;6.20;;;;;;;9.94;73.73;102742.25;3613330;39;20300;-68
2023/05/26 05:29:00;;;;;;;27.17;6.78;;;;;;;10.01;74.10;102751.88;3613731;39;20047;-69
2023/05/26 05:31:25;;;;;;;20.52;5.75;;;;;;;10.08;73.18;102742.72;3615610;39;20054;-67
2023/05/26 05:33:51;;;;;;;26.17;6.07;;;;;;;10.18;73.70;102746.00;3613005;39;20050;-68
2023/05/26 05:36:16;;;;;;;28.50;6.85;;;;;;;10.24;72.79;102748.50;3613351;39;20050;-68
2023/05/26 05:38:42;;;;;;;21.75;5.85;;;;;;;10.29;72.65;102752.00;3612940;39;20047;-68
2023/05/26 05:41:09;;;;;;;31.77;6.28;;;;;;;10.36;72.40;102747.31;3616899;39;20374;-68
2023/05/26 05:43:34;;;;;;;27.02;6.07;;;;;;;10.23;71.34;102717.19;3616731;39;20099;-68
2023/05/26 05:46:00;;;;;;;27.30;6.43;;;;;;;10.50;71.48;102749.56;3615445;39;20099;-68
2023/05/26 05:48:25;;;;;;;26.23;6.93;;;;;;;10.56;70.84;102749.38;3616382;39;20093;-68
2023/05/26 05:50:51;;;;;;;29.48;6.13;;;;;;;10.61;70.53;102745.63;3613025;39;20050;-68
2023/05/26 05:53:17;;;;;;;22.90;5.88;;;;;;;10.74;69.89;102754.19;3612210;39;20054;-67
2023/05/26 05:55:43;;;;;;;26.55;6.05;;;;;;;10.78;70.28;102758.53;3613567;39;20121;-67
2023/05/26 05:58:09;;;;;;;27.27;5.63;;;;;;;10.46;69.23;102678.88;3613329;39;20127;-67
2023/05/26 06:00:34;;;;;;;22.30;5.75;;;;;;;10.98;69.30;102755.22;3613735;39;20055;-67
2023/05/26 06:03:00;;;;;;;28.27;6.90;;;;;;;11.06;68.73;102763.03;3615538;39;20055;-68
2023/05/26 06:05:25;;;;;;;29.10;5.95;;;;;;;11.12;69.15;102770.91;3613284;39;20412;-67
2023/05/26 06:07:51;;;;;;;27.08;6.30;;;;;;;11.17;68.21;102768.97;3616020;39;20057;-68
2023/05/26 06:10:16;;;;;;;28.30;6.10;;;;;;;11.42;67.62;102770.81;3615415;39;20069;-67
2023/05/26 06:12:42;;;;;;;32.45;6.43;;;;;;;11.53;68.00;102788.38;3614972;39;20049;-67
2023/05/26 06:15:08;;;;;;;20.63;5.22;;;;;;;11.64;66.92;102779.94;3616198;39;20057;-67
2023/05/26 06:17:34;;;;;;;26.60;5.70;;;;;;;11.66;66.60;102772.66;3615374;39;20390;-68
2023/05/26 06:19:59;;;;;;;29.15;6.00;;;;;;;11.87;66.21;102781.84;3615194;39;20081;-67
2023/05/26 06:22:25;;;;;;;25.52;5.68;;;;;;;11.98;66.00;102779.63;3613496;39;20047;-67
2023/05/26 06:24:50;;;;;;;26.15;5.47;;;;;;;12.03;64.69;102774.94;3616334;39;20061;-68
2023/05/26 06:27:16;;;;;;;27.55;5.10;;;;;;;12.22;64.39;102777.84;3614176;39;20055;-67
2023/05/26 06:29:41;;;;;;;27.35;5.63;;;;;;;12.30;64.22;102781.16;3614802;39;20053;-68
2023/05/26 06:32:07;;;;;;;24.58;5.72;;;;;;;12.44;64.16;102787.81;3616840;39;20046;-67
2023/05/26 06:34:33;;;;;;;28.92;6.28;;;;;;;12.62;63.88;102786.22;3614542;39;20343;-68
2023/05/26 06:36:58;;;;;;;26.02;5.80;;;;;;;12.78;62.23;102785.56;3616490;39;20055;-68
2023/05/26 06:39:25;;;;;;;20.55;5.55;;;;;;;12.86;63.24;102784.38;3615132;39;20058;-67
2023/05/26 06:41:50;;;;;;;25.27;6.32;;;;;;;12.96;62.53;102780.38;3617199;39;20351;-66
2023/05/26 06:44:17;;;;;;;22.27;6.10;;;;;;;13.14;61.97;102781.44;3615266;39;20051;-67
2023/05/26 06:46:42;;;;;;;26.00;6.65;;;;;;;13.18;60.66;102792.03;3614779;39;20257;-67
2023/05/26 06:49:08;;;;;;;24.63;5.30;;;;;;;13.33;61.23;102781.59;3615901;39;20089;-67
2023/05/26 06:51:33;;;;;;;22.45;6.18;;;;;;;13.40;59.62;102789.34;3614514;39;20067;-67
2023/05/26 06:53:59;;;;;;;22.05;6.07;;;;;;;13.42;60.02;102790.19;3614292;39;20062;-68
2023/05/26 06:56:26;;;;;;;21.58;5.80;;;;;;;13.53;59.80;102780.72;3614280;39;20061;-66
2023/05/26 06:58:52;;;;;;;23.00;5.53;;;;;;;13.56;59.12;102791.41;3614799;39;20330;-67
2023/05/26 07:01:17;;;;;;;24.52;5.28;;;;;;;13.71;60.10;102782.66;3614699;39;20285;-67
2023/05/26 07:03:43;;;;;;;20.70;5.60;;;;;;;13.88;58.99;102790.00;3614690;39;20053;-67
2023/05/26 07:06:09;;;;;;;25.85;6.25;;;;;;;14.03;58.01;102792.03;3616593;39;20381;-67
2023/05/26 07:08:34;;;;;;;23.15;6.18;;;;;;;14.21;58.00;102794.84;3614791;39;20416;-67
2023/05/26 07:11:00;;;;;;;21.88;5.57;;;;;;;14.38;57.50;102792.25;3616323;39;20051;-67
2023/05/26 07:13:26;;;;;;;21.92;6.72;;;;;;;14.52;56.32;102786.22;3616784;39;20051;-67
2023/05/26 07:15:51;;;;;;;22.08;5.88;;;;;;;14.29;56.59;102722.31;3616211;39;20058;-67
2023/05/26 07:18:17;;;;;;;22.48;5.88;;;;;;;14.66;55.14;102782.88;3613821;39;20057;-67
2023/05/26 07:20:43;;;;;;;25.63;6.03;;;;;;;14.70;56.18;102781.75;3613968;39;20389;-66
2023/05/26 07:23:08;;;;;;;18.95;5.57;;;;;;;14.91;55.45;102786.16;3617984;39;20058;-67
2023/05/26 07:25:34;;;;;;;20.88;5.22;;;;;;;15.07;55.78;102781.72;3615921;39;20102;-67
2023/05/26 07:27:59;;;;;;;26.70;5.97;;;;;;;15.23;53.83;102794.50;3619501;39;20079;-67
2023/05/26 07:30:25;;;;;;;19.20;5.43;;;;;;;15.21;53.46;102793.69;3613957;39;20054;-66
2023/05/26 07:32:51;;;;;;;21.52;5.68;;;;;;;15.23;53.48;102780.97;3616315;39;20057;-67
2023/05/26 07:35:16;;;;;;;19.60;5.50;;;;;;;15.42;52.35;102794.47;3617107;39;20054;-67
2023/05/26 07:37:42;;;;;;;22.58;5.80;;;;;;;15.50;52.35;102784.97;3614466;39;20055;-67
2023/05/26 07:40:08;;;;;;;20.63;5.68;;;;;;;15.53;51.90;102794.78;3614755;39;20058;-67
2023/05/26 07:42:34;;;;;;;23.80;5.82;;;;;;;15.46;52.53;102788.78;3615912;39;20069;-67
2023/05/26 07:45:01;;;;;;;19.25;5.70;;;;;;;15.59;52.30;102788.16;3616026;39;20047;-67
2023/05/26 07:47:31;;;;;;;23.63;6.00;;;;;;;15.25;51.62;102752.81;3616788;39;20050;-66
2023/05/26 07:49:58;;;;;;;19.20;5.55;;;;;;;15.74;52.01;102796.41;3615999;39;20094;-66
2023/05/26 07:52:24;;;;;;;21.27;5.57;;;;;;;15.94;51.22;102795.38;3617731;39;20108;-67
2023/05/26 07:54:50;;;;;;;21.25;5.38;;;;;;;16.07;51.08;102789.28;3613487;39;20066;-66
2023/05/26 07:57:15;;;;;;;19.27;4.88;;;;;;;16.14;49.42;102794.31;3614438;39;20409;-65
2023/05/26 07:59:41;;;;;;;16.08;5.07;;;;;;;16.17;50.15;102795.97;3615320;39;20056;-66
2023/05/26 08:02:06;;;;;;;20.35;5.50;;;;;;;16.24;49.51;102791.97;3616596;39;20057;-66
2023/05/26 08:04:32;;;;;;;19.58;5.43;;;;;;;16.38;49.12;102800.22;3613790;39;20063;-67
2023/05/26 08:06:58;;;;;;;20.38;5.90;;;;;;;16.46;48.95;102799.81;3614199;39;20047;-67
2023/05/26 08:09:23;;;;;;;20.85;5.68;;;;;;;16.25;48.62;102739.44;3614477;39;20053;-67
2023/05/26 08:11:49;;;;;;;20.88;5.75;;;;;;;16.60;48.47;102796.34;3614276;39;20059;-67
2023/05/26 08:14:15;;;;;;;22.50;5.95;;;;;;;16.77;48.11;102801.72;3615069;39;20099;-68
2023/05/26 08:16:41;;;;;;;16.58;5.10;;;;;;;16.80;47.10;102800.66;3614292;39;20374;-67
2023/05/26 08:19:07;;;;;;;19.15;5.40;;;;;;;16.86;46.97;102795.75;3614685;39;20047;-66
2023/05/26 08:21:32;;;;;;;17.92;5.30;;;;;;;17.05;47.21;102808.31;3614844;39;20063;-66
2023/05/26 08:23:58;;;;;;;17.35;5.25;;;;;;;17.01;45.96;102798.59;3618198;39;20097;-66
2023/05/26 08:26:23;;;;;;;18.52;5.55;;;;;;;17.15;46.81;102796.78;3614921;39;20038;-66
2023/05/26 08:28:49;;;;;;;16.33;4.82;;;;;;;17.29;45.44;102793.28;3613815;39;20061;-66
2023/05/26 08:31:15;;;;;;;16.70;5.10;;;;;;;17.36;46.25;102791.97;3613812;39;20046;-66
2023/05/26 08:33:40;;;;;;;18.42;5.35;;;;;;;17.40;46.48;102781.78;3614077;39;20062;-66
2023/05/26 08:36:06;;;;;;;18.48;5.20;;;;;;;17.38;46.07;102784.59;3614394;39;20065;-66
2023/05/26 08:38:32;;;;;;;20.88;5.32;;;;;;;17.55;45.75;102791.72;3613603;39;20358;-66
2023/05/26 08:41:04;;;;;;;17.88;5.07;;;;;;;17.59;44.74;102789.69;3614432;39;20053;-66
2023/05/26 08:44:03;;;;;;;22.02;5.28;;;;;;;17.82;44.82;102788.34;3615498;39;20067;-66
2023/05/26 08:46:32;;;;;;;18.10;4.93;;;;;;;18.00;43.21;102779.03;3608938;39;20061;-66
2023/05/26 08:48:58;;;;;;;21.85;5.70;;;;;;;18.09;43.96;102778.47;3616927;39;20059;-67
2023/05/26 08:51:24;;;;;;;16.10;4.50;;;;;;;17.91;43.51;102743.38;3613621;39;20152;-65
2023/05/26 08:53:50;;;;;;;18.17;5.05;;;;;;;18.16;43.45;102794.41;3613638;39;20058;-66
2023/05/26 08:56:17;;;;;;;17.40;4.90;;;;;;;18.19;43.66;102781.50;3615826;39;20047;-66
2023/05/26 08:58:43;;;;;;;16.80;4.78;;;;;;;18.24;43.73;102787.53;3615350;39;20120;-66
2023/05/26 09:01:10;;;;;;;19.40;5.47;;;;;;;18.12;42.06;102758.34;3613499;39;20057;-66
2023/05/26 09:03:36;;;;;;;13.30;3.95;;;;;;;18.37;43.37;102786.75;3614235;39;20314;-66
2023/05/26 09:06:03;;;;;;;15.82;4.72;;;;;;;18.49;42.57;102792.28;3614515;39;20042;-68
2023/05/26 09:08:29;;;;;;;17.08;5.10;;;;;;;18.64;43.88;102795.84;3618216;39;20062;-65
2023/05/26 09:10:54;;;;;;;19.20;5.43;;;;;;;18.60;42.22;102786.16;3615660;39;20664;-66
2023/05/26 09:13:21;;;;;;;19.30;5.15;;;;;;;18.53;40.87;102765.72;3615246;39;20301;-66
2023/05/26 09:15:51;;;;;;;17.38;4.85;;;;;;;18.76;41.99;102777.88;3616603;39;20105;-66
2023/05/26 09:18:18;;;;;;;16.98;4.88;;;;;;;18.93;41.99;102782.22;3609154;39;20164;-67
2023/05/26 09:20:47;;;;;;;19.85;4.85;;;;;;;19.06;41.55;102788.63;3614248;39;20059;-66
2023/05/26 09:23:21;;;;;;;15.57;5.07;;;;;;;18.87;39.13;102763.53;3618660;39;20322;-67
2023/05/26 09:25:51;;;;;;;13.90;4.72;;;;;;;19.08;39.66;102794.84;3616076;39;20411;-67
2023/05/26 09:28:20;;;;;;;14.63;4.95;;;;;;;19.28;41.02;102785.31;3616423;39;20389;-66
2023/05/26 09:30:47;;;;;;;17.02;4.88;;;;;;;19.53;39.66;102795.44;3616536;39;20047;-66
2023/05/26 09:33:18;;;;;;;15.35;4.50;;;;;;;19.55;39.86;102798.94;3613715;39;20477;-66
2023/05/26 09:35:49;;;;;;;13.30;4.25;;;;;;;19.28;38.47;102733.50;3606444;39;20300;-67
2023/05/26 09:38:18;;;;;;;14.25;4.78;;;;;;;19.74;36.60;102789.53;3614628;39;20051;-65
2023/05/26 09:40:48;;;;;;;15.18;4.40;;;;;;;19.86;38.20;102796.84;3613578;39;20050;-66
2023/05/26 09:43:18;;;;;;;12.77;4.55;;;;;;;20.10;40.40;102792.38;3615084;39;20132;-66
2023/05/26 09:45:43;;;;;;;13.07;4.50;;;;;;;20.15;39.24;102787.47;3616828;39;20123;-66
2023/05/26 09:48:10;;;;;;;19.33;4.82;;;;;;;20.23;39.48;102792.38;3614487;39;20050;-66
2023/05/26 09:50:38;;;;;;;16.02;4.78;;;;;;;20.46;38.70;102793.47;3612765;39;20446;-68
2023/05/26 09:53:09;;;;;;;14.90;4.55;;;;;;;20.47;37.16;102781.53;3613727;39;20412;-67
2023/05/26 09:55:38;;;;;;;15.55;4.22;;;;;;;20.56;36.94;102791.84;3613261;39;20061;-67
2023/05/26 09:58:07;;;;;;;17.98;4.45;;;;;;;20.68;36.70;102791.91;3614533;39;20332;-67
2023/05/26 10:00:35;;;;;;;13.07;4.43;;;;;;;20.67;35.61;102784.72;3613393;39;20062;-67
2023/05/26 10:03:04;;;;;;;13.07;4.28;;;;;;;20.73;36.38;102787.00;3614423;39;20073;-67
2023/05/26 10:05:46;;;;;;;10.93;4.15;;;;;;;20.54;35.56;102728.22;3614533;39;20065;-66
2023/05/26 10:08:19;;;;;;;15.00;4.55;;;;;;;21.05;34.54;102782.72;3612696;39;20370;-66
2023/05/26 10:10:49;;;;;;;15.25;4.78;;;;;;;21.08;34.46;102777.03;3616412;39;20047;-66
2023/05/26 10:13:16;;;;;;;14.90;4.63;;;;;;;21.25;35.72;102778.50;3613653;39;20486;-66
2023/05/26 10:15:43;;;;;;;12.93;4.65;;;;;;;21.20;35.21;102763.41;3614994;39;20081;-67
2023/05/26 10:18:09;;;;;;;13.43;4.85;;;;;;;21.48;34.89;102782.22;3616545;39;20062;-66
2023/05/26 10:20:36;;;;;;;13.23;4.50;;;;;;;21.42;34.34;102782.69;3614080;39;20274;-67
2023/05/26 10:23:28;;;;;;;11.32;3.80;;;;;;;21.37;32.88;102779.44;3617253;39;20046;-68
2023/05/26 10:26:08;;;;;;;11.32;4.07;;;;;;;21.22;33.47;102748.63;3614981;39;20054;-66
2023/05/26 10:29:01;;;;;;;11.48;4.18;;;;;;;21.53;33.20;102776.38;3613904;39;20393;-67
2023/05/26 10:31:33;;;;;;;13.45;4.30;;;;;;;21.62;32.77;102769.34;3612853;39;20069;-66
2023/05/26 10:33:58;;;;;;;12.75;4.18;;;;;;;21.72;33.76;102759.41;3614167;39;20054;-67
2023/05/26 10:36:26;;;;;;;14.98;4.55;;;;;;;21.69;32.07;102776.97;3612837;39;20059;-66
2023/05/26 10:38:54;;;;;;;18.13;4.88;;;;;;;21.61;32.90;102779.41;3612936;39;20054;-66
2023/05/26 10:41:48;;;;;;;14.20;4.60;;;;;;;21.71;33.66;102764.00;3613708;39;20356;-66
2023/05/26 10:45:14;;;;;;;17.58;4.57;;;;;;;21.70;32.14;102766.88;3615066;39;20051;-66
2023/05/26 10:47:48;;;;;;;11.65;4.55;;;;;;;21.45;33.23;102746.03;3615556;39;20135;-66
2023/05/26 10:50:14;;;;;;;13.35;4.80;;;;;;;21.74;33.03;102757.44;3615709;39;20559;-66
2023/05/26 10:52:50;;;;;;;11.48;4.40;;;;;;;21.86;33.40;102753.72;3612776;39;20090;-67
2023/05/26 10:55:52;;;;;;;13.68;4.43;;;;;;;22.08;33.54;102755.63;3614508;39;20422;-66
2023/05/26 10:58:27;;;;;;;14.05;4.25;;;;;;;22.09;32.50;102754.63;3616378;39;20047;-67
2023/05/26 11:01:28;;;;;;;10.95;4.55;;;;;;;22.24;33.24;102753.41;3614655;39;20049;-66
2023/05/26 11:03:56;;;;;;;12.35;4.40;;;;;;;22.46;32.32;102755.28;3603222;39;20123;-67
2023/05/26 11:06:59;;;;;;;11.20;4.45;;;;;;;22.45;32.00;102747.19;3614248;39;20051;-67
2023/05/26 11:09:29;;;;;;;15.13;4.40;;;;;;;22.50;31.43;102755.03;3610295;39;20073;-67
2023/05/26 11:12:01;;;;;;;12.30;3.95;;;;;;;22.57;31.58;102750.78;3616095;39;20051;-67
2023/05/26 11:14:30;;;;;;;12.07;4.60;;;;;;;22.54;30.28;102754.66;3616186;39;20107;-67
2023/05/26 11:16:59;;;;;;;11.50;4.25;;;;;;;22.39;31.08;102710.22;3614205;39;20047;-66
2023/05/26 11:19:35;;;;;;;11.77;4.43;;;;;;;22.73;31.83;102743.03;3618610;39;20043;-67
2023/05/26 11:22:08;;;;;;;11.60;4.47;;;;;;;23.09;30.92;102754.69;3614957;39;20342;-66
2023/05/26 11:24:35;;;;;;;14.15;4.50;;;;;;;23.17;28.75;102754.91;3618108;39;20435;-67